sensor_id;sensor_type;location;lat;lon;timestamp;P1;durP1;ratioP1;P2;durP2;ratioP2
18580;SDS011;9420;50.876;7.012;2023-04-12T00:01:03;10.03;;;1.87;;
18580;SDS011;9420;50.876;7.012;2023-04-12T00:03:31;7.50;;;2.10;;
18580;SDS011;9420;50.876;7.012;2023-04-12T00:05:58;5.57;;;1.63;;
18580;SDS011;9420;50.876;7.012;2023-04-12T00:08:27;8.20;;;1.73;;
18580;SDS011;9420;50.876;7.012;2023-04-12T00:10:57;11.67;;;2.50;;
18580;SDS011;9420;50.876;7.012;2023-04-12T00:13:24;7.03;;;1.23;;
18580;SDS011;9420;50.876;7.012;2023-04-12T00:15:52;6.17;;;1.87;;
18580;SDS011;9420;50.876;7.012;2023-04-12T00:18:20;11.67;;;2.27;;
18580;SDS011;9420;50.876;7.012;2023-04-12T00:20:49;7.67;;;1.17;;
18580;SDS011;9420;50.876;7.012;2023-04-12T00:23:16;8.70;;;1.67;;
18580;SDS011;9420;50.876;7.012;2023-04-12T00:25:44;4.80;;;1.63;;
18580;SDS011;9420;50.876;7.012;2023-04-12T00:28:11;6.77;;;2.07;;
18580;SDS011;9420;50.876;7.012;2023-04-12T00:30:38;5.27;;;1.43;;
18580;SDS011;9420;50.876;7.012;2023-04-12T00:33:05;6.13;;;1.70;;
18580;SDS011;9420;50.876;7.012;2023-04-12T00:35:34;4.17;;;1.53;;
18580;SDS011;9420;50.876;7.012;2023-04-12T00:38:01;4.70;;;1.50;;
18580;SDS011;9420;50.876;7.012;2023-04-12T00:40:30;7.70;;;1.20;;
18580;SDS011;9420;50.876;7.012;2023-04-12T00:42:57;6.63;;;1.40;;
18580;SDS011;9420;50.876;7.012;2023-04-12T00:45:24;4.93;;;1.37;;
18580;SDS011;9420;50.876;7.012;2023-04-12T00:47:51;8.20;;;1.67;;
18580;SDS011;9420;50.876;7.012;2023-04-12T00:50:20;8.77;;;1.70;;
18580;SDS011;9420;50.876;7.012;2023-04-12T00:52:49;5.83;;;2.07;;
18580;SDS011;9420;50.876;7.012;2023-04-12T00:55:19;3.67;;;1.43;;
18580;SDS011;9420;50.876;7.012;2023-04-12T00:57:46;6.67;;;1.57;;
18580;SDS011;9420;50.876;7.012;2023-04-12T01:00:13;5.27;;;1.87;;
18580;SDS011;9420;50.876;7.012;2023-04-12T01:02:42;6.33;;;1.57;;
18580;SDS011;9420;50.876;7.012;2023-04-12T01:05:14;6.47;;;1.67;;
18580;SDS011;9420;50.876;7.012;2023-04-12T01:07:48;3.70;;;1.37;;
18580;SDS011;9420;50.876;7.012;2023-04-12T01:10:32;9.23;;;1.53;;
18580;SDS011;9420;50.876;7.012;2023-04-12T01:13:11;9.17;;;1.60;;
18580;SDS011;9420;50.876;7.012;2023-04-12T01:15:55;7.53;;;1.70;;
18580;SDS011;9420;50.876;7.012;2023-04-12T01:18:32;7.60;;;2.00;;
18580;SDS011;9420;50.876;7.012;2023-04-12T01:21:07;2.67;;;1.23;;
18580;SDS011;9420;50.876;7.012;2023-04-12T01:23:52;8.63;;;1.73;;
18580;SDS011;9420;50.876;7.012;2023-04-12T01:26:30;6.77;;;2.20;;
18580;SDS011;9420;50.876;7.012;2023-04-12T01:29:08;4.27;;;1.37;;
18580;SDS011;9420;50.876;7.012;2023-04-12T01:31:38;4.87;;;2.00;;
18580;SDS011;9420;50.876;7.012;2023-04-12T01:34:17;6.87;;;1.50;;
18580;SDS011;9420;50.876;7.012;2023-04-12T01:36:47;6.07;;;1.57;;
18580;SDS011;9420;50.876;7.012;2023-04-12T01:39:16;7.00;;;1.80;;
18580;SDS011;9420;50.876;7.012;2023-04-12T01:41:44;12.97;;;1.70;;
18580;SDS011;9420;50.876;7.012;2023-04-12T01:44:14;5.93;;;1.43;;
18580;SDS011;9420;50.876;7.012;2023-04-12T01:46:42;4.40;;;1.50;;
18580;SDS011;9420;50.876;7.012;2023-04-12T01:49:11;4.10;;;1.00;;
18580;SDS011;9420;50.876;7.012;2023-04-12T01:51:41;5.03;;;1.90;;
18580;SDS011;9420;50.876;7.012;2023-04-12T01:54:19;7.47;;;1.70;;
18580;SDS011;9420;50.876;7.012;2023-04-12T01:56:52;2.00;;;1.13;;
18580;SDS011;9420;50.876;7.012;2023-04-12T01:59:26;4.97;;;1.43;;
18580;SDS011;9420;50.876;7.012;2023-04-12T02:01:59;4.87;;;1.20;;
18580;SDS011;9420;50.876;7.012;2023-04-12T02:04:28;4.73;;;1.30;;
18580;SDS011;9420;50.876;7.012;2023-04-12T02:06:56;1.33;;;1.00;;
18580;SDS011;9420;50.876;7.012;2023-04-12T02:09:23;4.97;;;1.20;;
18580;SDS011;9420;50.876;7.012;2023-04-12T02:11:50;5.53;;;1.60;;
18580;SDS011;9420;50.876;7.012;2023-04-12T02:14:17;6.10;;;1.33;;
18580;SDS011;9420;50.876;7.012;2023-04-12T02:16:46;3.57;;;1.23;;
18580;SDS011;9420;50.876;7.012;2023-04-12T02:19:14;3.40;;;1.10;;
18580;SDS011;9420;50.876;7.012;2023-04-12T02:21:41;6.03;;;1.50;;
18580;SDS011;9420;50.876;7.012;2023-04-12T02:24:11;7.33;;;2.20;;
18580;SDS011;9420;50.876;7.012;2023-04-12T02:26:38;3.20;;;1.47;;
18580;SDS011;9420;50.876;7.012;2023-04-12T02:29:05;3.80;;;1.53;;
18580;SDS011;9420;50.876;7.012;2023-04-12T02:31:34;7.50;;;1.63;;
18580;SDS011;9420;50.876;7.012;2023-04-12T02:34:04;5.10;;;1.63;;
18580;SDS011;9420;50.876;7.012;2023-04-12T02:36:32;2.90;;;1.60;;
18580;SDS011;9420;50.876;7.012;2023-04-12T02:38:59;6.23;;;1.53;;
18580;SDS011;9420;50.876;7.012;2023-04-12T02:41:26;7.07;;;1.57;;
18580;SDS011;9420;50.876;7.012;2023-04-12T02:43:53;4.97;;;1.20;;
18580;SDS011;9420;50.876;7.012;2023-04-12T02:46:21;7.83;;;1.57;;
18580;SDS011;9420;50.876;7.012;2023-04-12T02:48:49;8.77;;;1.83;;
18580;SDS011;9420;50.876;7.012;2023-04-12T02:51:18;3.67;;;1.27;;
18580;SDS011;9420;50.876;7.012;2023-04-12T02:53:45;7.33;;;1.90;;
18580;SDS011;9420;50.876;7.012;2023-04-12T02:56:13;3.93;;;1.50;;
18580;SDS011;9420;50.876;7.012;2023-04-12T02:58:43;6.50;;;1.93;;
18580;SDS011;9420;50.876;7.012;2023-04-12T03:01:10;5.37;;;1.70;;
18580;SDS011;9420;50.876;7.012;2023-04-12T03:03:37;9.73;;;2.43;;
18580;SDS011;9420;50.876;7.012;2023-04-12T03:06:04;7.40;;;2.53;;
18580;SDS011;9420;50.876;7.012;2023-04-12T03:08:35;10.20;;;2.37;;
18580;SDS011;9420;50.876;7.012;2023-04-12T03:11:03;10.33;;;2.30;;
18580;SDS011;9420;50.876;7.012;2023-04-12T03:13:31;7.77;;;1.83;;
18580;SDS011;9420;50.876;7.012;2023-04-12T03:15:58;12.17;;;1.53;;
18580;SDS011;9420;50.876;7.012;2023-04-12T03:18:44;2.87;;;1.60;;
18580;SDS011;9420;50.876;7.012;2023-04-12T03:21:11;3.93;;;0.93;;
18580;SDS011;9420;50.876;7.012;2023-04-12T03:23:39;5.30;;;2.40;;
18580;SDS011;9420;50.876;7.012;2023-04-12T03:26:06;6.87;;;2.10;;
18580;SDS011;9420;50.876;7.012;2023-04-12T03:28:33;2.90;;;1.53;;
18580;SDS011;9420;50.876;7.012;2023-04-12T03:31:01;4.33;;;2.27;;
18580;SDS011;9420;50.876;7.012;2023-04-12T03:33:28;9.37;;;2.53;;
18580;SDS011;9420;50.876;7.012;2023-04-12T03:35:55;9.43;;;2.20;;
18580;SDS011;9420;50.876;7.012;2023-04-12T03:38:22;5.50;;;2.00;;
18580;SDS011;9420;50.876;7.012;2023-04-12T03:40:51;11.10;;;2.23;;
18580;SDS011;9420;50.876;7.012;2023-04-12T03:43:18;6.10;;;1.90;;
18580;SDS011;9420;50.876;7.012;2023-04-12T03:45:46;4.43;;;1.73;;
18580;SDS011;9420;50.876;7.012;2023-04-12T03:48:13;6.27;;;2.20;;
18580;SDS011;9420;50.876;7.012;2023-04-12T03:50:40;6.27;;;1.53;;
18580;SDS011;9420;50.876;7.012;2023-04-12T03:53:09;9.73;;;1.80;;
18580;SDS011;9420;50.876;7.012;2023-04-12T03:55:37;5.27;;;2.50;;
18580;SDS011;9420;50.876;7.012;2023-04-12T03:58:06;8.10;;;2.70;;
18580;SDS011;9420;50.876;7.012;2023-04-12T04:00:33;7.93;;;1.97;;
18580;SDS011;9420;50.876;7.012;2023-04-12T04:03:00;6.60;;;2.40;;
18580;SDS011;9420;50.876;7.012;2023-04-12T04:05:29;5.10;;;2.27;;
18580;SDS011;9420;50.876;7.012;2023-04-12T04:07:56;6.73;;;2.47;;
18580;SDS011;9420;50.876;7.012;2023-04-12T04:10:25;4.83;;;2.30;;
18580;SDS011;9420;50.876;7.012;2023-04-12T04:12:52;7.27;;;2.40;;
18580;SDS011;9420;50.876;7.012;2023-04-12T04:15:21;6.93;;;2.00;;
18580;SDS011;9420;50.876;7.012;2023-04-12T04:17:49;7.03;;;2.20;;
18580;SDS011;9420;50.876;7.012;2023-04-12T04:20:17;6.60;;;2.30;;
18580;SDS011;9420;50.876;7.012;2023-04-12T04:22:45;4.73;;;2.90;;
18580;SDS011;9420;50.876;7.012;2023-04-12T04:25:12;10.87;;;2.40;;
18580;SDS011;9420;50.876;7.012;2023-04-12T04:27:40;4.30;;;2.03;;
18580;SDS011;9420;50.876;7.012;2023-04-12T04:30:09;5.87;;;1.73;;
18580;SDS011;9420;50.876;7.012;2023-04-12T04:32:39;5.23;;;2.30;;
18580;SDS011;9420;50.876;7.012;2023-04-12T04:35:07;4.10;;;2.17;;
18580;SDS011;9420;50.876;7.012;2023-04-12T04:37:34;3.37;;;2.00;;
18580;SDS011;9420;50.876;7.012;2023-04-12T04:40:01;3.23;;;2.03;;
18580;SDS011;9420;50.876;7.012;2023-04-12T04:42:32;6.43;;;2.30;;
18580;SDS011;9420;50.876;7.012;2023-04-12T04:44:59;6.90;;;1.93;;
18580;SDS011;9420;50.876;7.012;2023-04-12T04:47:36;5.20;;;1.90;;
18580;SDS011;9420;50.876;7.012;2023-04-12T04:50:06;6.77;;;2.37;;
18580;SDS011;9420;50.876;7.012;2023-04-12T04:52:35;4.10;;;1.97;;
18580;SDS011;9420;50.876;7.012;2023-04-12T04:55:03;4.47;;;2.30;;
18580;SDS011;9420;50.876;7.012;2023-04-12T04:57:32;1.80;;;1.70;;
18580;SDS011;9420;50.876;7.012;2023-04-12T04:59:59;4.67;;;2.07;;
18580;SDS011;9420;50.876;7.012;2023-04-12T05:02:34;2.50;;;1.70;;
18580;SDS011;9420;50.876;7.012;2023-04-12T05:05:03;3.03;;;1.87;;
18580;SDS011;9420;50.876;7.012;2023-04-12T05:07:32;5.33;;;2.60;;
18580;SDS011;9420;50.876;7.012;2023-04-12T05:10:00;3.53;;;1.87;;
18580;SDS011;9420;50.876;7.012;2023-04-12T05:12:27;3.70;;;2.03;;
18580;SDS011;9420;50.876;7.012;2023-04-12T05:14:56;5.73;;;2.17;;
18580;SDS011;9420;50.876;7.012;2023-04-12T05:17:24;4.90;;;2.37;;
18580;SDS011;9420;50.876;7.012;2023-04-12T05:19:51;2.60;;;1.53;;
18580;SDS011;9420;50.876;7.012;2023-04-12T05:22:19;3.17;;;1.80;;
18580;SDS011;9420;50.876;7.012;2023-04-12T05:24:46;2.77;;;2.03;;
18580;SDS011;9420;50.876;7.012;2023-04-12T05:27:14;9.50;;;2.23;;
18580;SDS011;9420;50.876;7.012;2023-04-12T05:29:41;5.07;;;2.23;;
18580;SDS011;9420;50.876;7.012;2023-04-12T05:32:08;4.03;;;2.07;;
18580;SDS011;9420;50.876;7.012;2023-04-12T05:34:35;4.73;;;2.10;;
18580;SDS011;9420;50.876;7.012;2023-04-12T05:37:02;4.63;;;2.10;;
18580;SDS011;9420;50.876;7.012;2023-04-12T05:39:32;5.33;;;2.20;;
18580;SDS011;9420;50.876;7.012;2023-04-12T05:41:59;3.33;;;1.87;;
18580;SDS011;9420;50.876;7.012;2023-04-12T05:44:26;3.80;;;2.33;;
18580;SDS011;9420;50.876;7.012;2023-04-12T05:46:53;2.83;;;2.07;;
18580;SDS011;9420;50.876;7.012;2023-04-12T05:49:20;4.57;;;1.90;;
18580;SDS011;9420;50.876;7.012;2023-04-12T05:51:47;7.97;;;2.57;;
18580;SDS011;9420;50.876;7.012;2023-04-12T05:54:14;3.27;;;2.07;;
18580;SDS011;9420;50.876;7.012;2023-04-12T05:56:46;6.20;;;2.33;;
18580;SDS011;9420;50.876;7.012;2023-04-12T05:59:13;5.20;;;1.93;;
18580;SDS011;9420;50.876;7.012;2023-04-12T06:01:40;2.57;;;1.97;;
18580;SDS011;9420;50.876;7.012;2023-04-12T06:04:08;4.13;;;2.70;;
18580;SDS011;9420;50.876;7.012;2023-04-12T06:06:36;4.47;;;2.40;;
18580;SDS011;9420;50.876;7.012;2023-04-12T06:09:03;2.57;;;1.80;;
18580;SDS011;9420;50.876;7.012;2023-04-12T06:11:30;4.73;;;2.07;;
18580;SDS011;9420;50.876;7.012;2023-04-12T06:13:59;3.73;;;1.80;;
18580;SDS011;9420;50.876;7.012;2023-04-12T06:16:26;5.93;;;1.70;;
18580;SDS011;9420;50.876;7.012;2023-04-12T06:18:54;3.40;;;2.23;;
18580;SDS011;9420;50.876;7.012;2023-04-12T06:21:21;3.33;;;1.83;;
18580;SDS011;9420;50.876;7.012;2023-04-12T06:23:49;6.63;;;2.37;;
18580;SDS011;9420;50.876;7.012;2023-04-12T06:26:16;3.33;;;1.83;;
18580;SDS011;9420;50.876;7.012;2023-04-12T06:28:43;9.07;;;2.67;;
18580;SDS011;9420;50.876;7.012;2023-04-12T06:31:12;6.20;;;1.90;;
18580;SDS011;9420;50.876;7.012;2023-04-12T06:33:40;2.63;;;1.70;;
18580;SDS011;9420;50.876;7.012;2023-04-12T06:36:08;4.33;;;2.00;;
18580;SDS011;9420;50.876;7.012;2023-04-12T06:38:36;4.60;;;1.90;;
18580;SDS011;9420;50.876;7.012;2023-04-12T06:41:04;3.87;;;2.27;;
18580;SDS011;9420;50.876;7.012;2023-04-12T06:43:31;3.03;;;2.00;;
18580;SDS011;9420;50.876;7.012;2023-04-12T06:45:59;10.03;;;1.97;;
18580;SDS011;9420;50.876;7.012;2023-04-12T06:48:28;3.70;;;1.83;;
18580;SDS011;9420;50.876;7.012;2023-04-12T06:50:55;2.93;;;2.10;;
18580;SDS011;9420;50.876;7.012;2023-04-12T06:53:22;3.60;;;2.27;;
18580;SDS011;9420;50.876;7.012;2023-04-12T06:55:49;5.30;;;2.17;;
18580;SDS011;9420;50.876;7.012;2023-04-12T06:58:17;3.50;;;1.57;;
18580;SDS011;9420;50.876;7.012;2023-04-12T07:00:44;3.83;;;1.67;;
18580;SDS011;9420;50.876;7.012;2023-04-12T07:03:12;3.53;;;1.60;;
18580;SDS011;9420;50.876;7.012;2023-04-12T07:05:40;2.70;;;1.40;;
18580;SDS011;9420;50.876;7.012;2023-04-12T07:08:07;3.33;;;2.03;;
18580;SDS011;9420;50.876;7.012;2023-04-12T07:10:34;4.13;;;1.70;;
18580;SDS011;9420;50.876;7.012;2023-04-12T07:13:02;3.87;;;1.50;;
18580;SDS011;9420;50.876;7.012;2023-04-12T07:15:32;4.77;;;1.70;;
18580;SDS011;9420;50.876;7.012;2023-04-12T07:17:59;2.63;;;1.70;;
18580;SDS011;9420;50.876;7.012;2023-04-12T07:20:26;5.60;;;1.60;;
18580;SDS011;9420;50.876;7.012;2023-04-12T07:22:54;1.43;;;1.33;;
18580;SDS011;9420;50.876;7.012;2023-04-12T07:25:21;1.60;;;1.30;;
18580;SDS011;9420;50.876;7.012;2023-04-12T07:27:48;2.00;;;1.33;;
18580;SDS011;9420;50.876;7.012;2023-04-12T07:30:15;7.37;;;1.73;;
18580;SDS011;9420;50.876;7.012;2023-04-12T07:32:43;1.80;;;1.70;;
18580;SDS011;9420;50.876;7.012;2023-04-12T07:35:10;1.60;;;1.20;;
18580;SDS011;9420;50.876;7.012;2023-04-12T07:37:37;3.23;;;1.43;;
18580;SDS011;9420;50.876;7.012;2023-04-12T07:40:06;1.83;;;1.07;;
18580;SDS011;9420;50.876;7.012;2023-04-12T07:42:34;2.03;;;1.67;;
18580;SDS011;9420;50.876;7.012;2023-04-12T07:45:01;2.20;;;0.90;;
18580;SDS011;9420;50.876;7.012;2023-04-12T07:47:28;3.57;;;1.60;;
18580;SDS011;9420;50.876;7.012;2023-04-12T07:49:56;2.50;;;1.63;;
18580;SDS011;9420;50.876;7.012;2023-04-12T07:52:24;1.43;;;1.00;;
18580;SDS011;9420;50.876;7.012;2023-04-12T07:54:51;4.77;;;1.70;;
18580;SDS011;9420;50.876;7.012;2023-04-12T07:57:20;4.67;;;1.27;;
18580;SDS011;9420;50.876;7.012;2023-04-12T07:59:47;5.00;;;1.50;;
18580;SDS011;9420;50.876;7.012;2023-04-12T08:02:15;4.43;;;1.47;;
18580;SDS011;9420;50.876;7.012;2023-04-12T08:04:48;3.20;;;1.20;;
18580;SDS011;9420;50.876;7.012;2023-04-12T08:07:15;4.93;;;1.47;;
18580;SDS011;9420;50.876;7.012;2023-04-12T08:09:42;4.50;;;1.17;;
18580;SDS011;9420;50.876;7.012;2023-04-12T08:12:09;2.73;;;1.60;;
18580;SDS011;9420;50.876;7.012;2023-04-12T08:14:38;4.07;;;1.37;;
18580;SDS011;9420;50.876;7.012;2023-04-12T08:17:05;1.17;;;0.87;;
18580;SDS011;9420;50.876;7.012;2023-04-12T08:19:32;1.97;;;1.37;;
18580;SDS011;9420;50.876;7.012;2023-04-12T08:21:59;1.40;;;1.30;;
18580;SDS011;9420;50.876;7.012;2023-04-12T08:24:26;2.03;;;1.20;;
18580;SDS011;9420;50.876;7.012;2023-04-12T08:26:53;2.03;;;0.63;;
18580;SDS011;9420;50.876;7.012;2023-04-12T08:29:21;1.57;;;0.90;;
18580;SDS011;9420;50.876;7.012;2023-04-12T08:31:50;2.97;;;1.27;;
18580;SDS011;9420;50.876;7.012;2023-04-12T08:34:17;2.07;;;1.77;;
18580;SDS011;9420;50.876;7.012;2023-04-12T08:36:46;1.57;;;1.23;;
18580;SDS011;9420;50.876;7.012;2023-04-12T08:39:13;3.73;;;1.40;;
18580;SDS011;9420;50.876;7.012;2023-04-12T08:41:40;1.40;;;0.80;;
18580;SDS011;9420;50.876;7.012;2023-04-12T08:44:09;2.80;;;1.03;;
18580;SDS011;9420;50.876;7.012;2023-04-12T08:46:37;1.00;;;0.87;;
18580;SDS011;9420;50.876;7.012;2023-04-12T08:49:05;2.00;;;1.23;;
18580;SDS011;9420;50.876;7.012;2023-04-12T08:51:32;2.13;;;0.90;;
18580;SDS011;9420;50.876;7.012;2023-04-12T08:54:01;1.37;;;1.00;;
18580;SDS011;9420;50.876;7.012;2023-04-12T08:56:30;1.27;;;1.10;;
18580;SDS011;9420;50.876;7.012;2023-04-12T08:58:57;2.07;;;0.93;;
18580;SDS011;9420;50.876;7.012;2023-04-12T09:01:26;3.23;;;1.20;;
18580;SDS011;9420;50.876;7.012;2023-04-12T09:03:53;1.67;;;0.97;;
18580;SDS011;9420;50.876;7.012;2023-04-12T09:06:22;2.40;;;1.00;;
18580;SDS011;9420;50.876;7.012;2023-04-12T09:08:52;1.73;;;0.80;;
18580;SDS011;9420;50.876;7.012;2023-04-12T09:11:22;0.73;;;0.70;;
18580;SDS011;9420;50.876;7.012;2023-04-12T09:13:51;3.33;;;1.07;;
18580;SDS011;9420;50.876;7.012;2023-04-12T09:16:32;1.27;;;0.70;;
18580;SDS011;9420;50.876;7.012;2023-04-12T09:19:04;3.80;;;1.00;;
18580;SDS011;9420;50.876;7.012;2023-04-12T09:21:34;1.00;;;0.90;;
18580;SDS011;9420;50.876;7.012;2023-04-12T09:24:02;1.50;;;0.77;;
18580;SDS011;9420;50.876;7.012;2023-04-12T09:26:33;1.07;;;0.50;;
18580;SDS011;9420;50.876;7.012;2023-04-12T09:29:00;1.03;;;0.90;;
18580;SDS011;9420;50.876;7.012;2023-04-12T09:31:28;1.00;;;0.80;;
18580;SDS011;9420;50.876;7.012;2023-04-12T09:33:59;1.70;;;0.60;;
18580;SDS011;9420;50.876;7.012;2023-04-12T09:36:37;1.50;;;0.90;;
18580;SDS011;9420;50.876;7.012;2023-04-12T09:39:06;1.20;;;0.90;;
18580;SDS011;9420;50.876;7.012;2023-04-12T09:41:33;1.03;;;0.90;;
18580;SDS011;9420;50.876;7.012;2023-04-12T09:44:00;1.00;;;0.80;;
18580;SDS011;9420;50.876;7.012;2023-04-12T09:46:28;1.70;;;1.20;;
18580;SDS011;9420;50.876;7.012;2023-04-12T09:48:55;1.37;;;1.00;;
18580;SDS011;9420;50.876;7.012;2023-04-12T09:51:24;4.60;;;1.77;;
18580;SDS011;9420;50.876;7.012;2023-04-12T09:53:56;3.57;;;0.87;;
18580;SDS011;9420;50.876;7.012;2023-04-12T09:56:27;3.30;;;0.80;;
18580;SDS011;9420;50.876;7.012;2023-04-12T09:58:56;3.57;;;0.80;;
18580;SDS011;9420;50.876;7.012;2023-04-12T10:01:28;1.80;;;1.10;;
18580;SDS011;9420;50.876;7.012;2023-04-12T10:03:59;1.63;;;1.10;;
18580;SDS011;9420;50.876;7.012;2023-04-12T10:06:28;1.10;;;1.00;;
18580;SDS011;9420;50.876;7.012;2023-04-12T10:08:57;1.50;;;1.07;;
18580;SDS011;9420;50.876;7.012;2023-04-12T10:11:26;1.10;;;1.00;;
18580;SDS011;9420;50.876;7.012;2023-04-12T10:13:54;1.27;;;1.00;;
18580;SDS011;9420;50.876;7.012;2023-04-12T10:16:23;3.57;;;1.13;;
18580;SDS011;9420;50.876;7.012;2023-04-12T10:18:52;3.07;;;1.30;;
18580;SDS011;9420;50.876;7.012;2023-04-12T10:21:20;2.23;;;1.40;;
18580;SDS011;9420;50.876;7.012;2023-04-12T10:23:49;1.93;;;1.00;;
18580;SDS011;9420;50.876;7.012;2023-04-12T10:26:17;0.80;;;0.80;;
18580;SDS011;9420;50.876;7.012;2023-04-12T10:28:45;1.40;;;0.80;;
18580;SDS011;9420;50.876;7.012;2023-04-12T10:31:47;2.97;;;1.23;;
18580;SDS011;9420;50.876;7.012;2023-04-12T10:34:15;1.70;;;0.77;;
18580;SDS011;9420;50.876;7.012;2023-04-12T10:36:52;2.23;;;1.17;;
18580;SDS011;9420;50.876;7.012;2023-04-12T10:39:37;1.63;;;0.90;;
18580;SDS011;9420;50.876;7.012;2023-04-12T10:42:15;1.20;;;1.10;;
18580;SDS011;9420;50.876;7.012;2023-04-12T10:44:48;1.23;;;0.57;;
18580;SDS011;9420;50.876;7.012;2023-04-12T10:50:26;2.23;;;1.63;;
18580;SDS011;9420;50.876;7.012;2023-04-12T10:55:49;1.27;;;1.00;;
18580;SDS011;9420;50.876;7.012;2023-04-12T11:01:27;5.20;;;1.20;;
18580;SDS011;9420;50.876;7.012;2023-04-12T11:06:54;2.07;;;1.40;;
18580;SDS011;9420;50.876;7.012;2023-04-12T11:09:26;1.87;;;1.03;;
18580;SDS011;9420;50.876;7.012;2023-04-12T11:11:55;1.33;;;0.90;;
18580;SDS011;9420;50.876;7.012;2023-04-12T11:14:38;1.13;;;0.73;;
18580;SDS011;9420;50.876;7.012;2023-04-12T11:17:23;2.03;;;0.83;;
18580;SDS011;9420;50.876;7.012;2023-04-12T11:19:55;3.23;;;1.00;;
18580;SDS011;9420;50.876;7.012;2023-04-12T11:22:26;7.00;;;1.07;;
18580;SDS011;9420;50.876;7.012;2023-04-12T11:24:59;2.27;;;0.90;;
18580;SDS011;9420;50.876;7.012;2023-04-12T11:27:30;1.67;;;0.70;;
18580;SDS011;9420;50.876;7.012;2023-04-12T11:30:00;1.63;;;0.93;;
18580;SDS011;9420;50.876;7.012;2023-04-12T11:32:28;3.63;;;1.17;;
18580;SDS011;9420;50.876;7.012;2023-04-12T11:34:58;2.63;;;1.17;;
18580;SDS011;9420;50.876;7.012;2023-04-12T11:37:25;3.03;;;1.40;;
18580;SDS011;9420;50.876;7.012;2023-04-12T11:39:52;2.17;;;1.33;;
18580;SDS011;9420;50.876;7.012;2023-04-12T11:42:23;6.20;;;1.50;;
18580;SDS011;9420;50.876;7.012;2023-04-12T11:44:51;2.00;;;1.70;;
18580;SDS011;9420;50.876;7.012;2023-04-12T11:47:21;4.13;;;2.10;;
18580;SDS011;9420;50.876;7.012;2023-04-12T11:49:51;6.67;;;1.80;;
18580;SDS011;9420;50.876;7.012;2023-04-12T11:52:21;6.23;;;2.27;;
18580;SDS011;9420;50.876;7.012;2023-04-12T11:54:54;7.03;;;2.43;;
18580;SDS011;9420;50.876;7.012;2023-04-12T11:57:23;4.10;;;2.20;;
18580;SDS011;9420;50.876;7.012;2023-04-12T11:59:55;5.97;;;2.07;;
18580;SDS011;9420;50.876;7.012;2023-04-12T12:02:25;8.47;;;2.80;;
18580;SDS011;9420;50.876;7.012;2023-04-12T12:04:52;6.77;;;2.57;;
18580;SDS011;9420;50.876;7.012;2023-04-12T12:07:20;4.73;;;2.63;;
18580;SDS011;9420;50.876;7.012;2023-04-12T12:09:48;4.33;;;2.70;;
18580;SDS011;9420;50.876;7.012;2023-04-12T12:12:16;8.73;;;3.07;;
18580;SDS011;9420;50.876;7.012;2023-04-12T12:14:43;4.57;;;1.83;;
18580;SDS011;9420;50.876;7.012;2023-04-12T12:17:14;3.77;;;2.10;;
18580;SDS011;9420;50.876;7.012;2023-04-12T12:19:44;5.33;;;2.47;;
18580;SDS011;9420;50.876;7.012;2023-04-12T12:22:13;6.53;;;2.10;;
18580;SDS011;9420;50.876;7.012;2023-04-12T12:24:45;8.57;;;2.80;;
18580;SDS011;9420;50.876;7.012;2023-04-12T12:27:16;5.13;;;1.77;;
18580;SDS011;9420;50.876;7.012;2023-04-12T12:29:50;2.90;;;1.67;;
18580;SDS011;9420;50.876;7.012;2023-04-12T12:32:19;5.03;;;1.60;;
18580;SDS011;9420;50.876;7.012;2023-04-12T12:34:53;4.57;;;1.53;;
18580;SDS011;9420;50.876;7.012;2023-04-12T12:37:22;4.67;;;1.33;;
18580;SDS011;9420;50.876;7.012;2023-04-12T12:40:00;4.00;;;1.57;;
18580;SDS011;9420;50.876;7.012;2023-04-12T12:42:35;3.13;;;1.30;;
18580;SDS011;9420;50.876;7.012;2023-04-12T12:45:10;2.40;;;1.03;;
18580;SDS011;9420;50.876;7.012;2023-04-12T12:47:44;5.20;;;0.97;;
18580;SDS011;9420;50.876;7.012;2023-04-12T12:50:20;5.63;;;1.97;;
18580;SDS011;9420;50.876;7.012;2023-04-12T12:52:48;5.50;;;2.03;;
18580;SDS011;9420;50.876;7.012;2023-04-12T12:55:16;2.57;;;0.77;;
18580;SDS011;9420;50.876;7.012;2023-04-12T12:57:45;6.53;;;1.10;;
18580;SDS011;9420;50.876;7.012;2023-04-12T13:00:14;3.17;;;1.37;;
18580;SDS011;9420;50.876;7.012;2023-04-12T13:02:42;3.03;;;1.47;;
18580;SDS011;9420;50.876;7.012;2023-04-12T13:05:10;4.60;;;1.20;;
18580;SDS011;9420;50.876;7.012;2023-04-12T13:07:39;4.13;;;1.13;;
18580;SDS011;9420;50.876;7.012;2023-04-12T13:10:06;3.70;;;1.13;;
18580;SDS011;9420;50.876;7.012;2023-04-12T13:12:34;7.40;;;1.33;;
18580;SDS011;9420;50.876;7.012;2023-04-12T13:15:01;4.23;;;1.30;;
18580;SDS011;9420;50.876;7.012;2023-04-12T13:17:29;5.03;;;1.30;;
18580;SDS011;9420;50.876;7.012;2023-04-12T13:19:57;5.80;;;0.93;;
18580;SDS011;9420;50.876;7.012;2023-04-12T13:22:24;3.43;;;1.47;;
18580;SDS011;9420;50.876;7.012;2023-04-12T13:24:53;4.90;;;1.60;;
18580;SDS011;9420;50.876;7.012;2023-04-12T13:27:20;3.90;;;1.30;;
18580;SDS011;9420;50.876;7.012;2023-04-12T13:29:47;2.87;;;1.20;;
18580;SDS011;9420;50.876;7.012;2023-04-12T13:32:14;6.30;;;1.90;;
18580;SDS011;9420;50.876;7.012;2023-04-12T13:34:42;3.50;;;1.33;;
18580;SDS011;9420;50.876;7.012;2023-04-12T13:37:10;5.53;;;2.53;;
18580;SDS011;9420;50.876;7.012;2023-04-12T13:39:37;5.07;;;1.17;;
18580;SDS011;9420;50.876;7.012;2023-04-12T13:42:06;4.47;;;1.50;;
18580;SDS011;9420;50.876;7.012;2023-04-12T13:44:34;4.77;;;1.40;;
18580;SDS011;9420;50.876;7.012;2023-04-12T13:47:01;5.10;;;1.70;;
18580;SDS011;9420;50.876;7.012;2023-04-12T13:49:29;3.47;;;1.27;;
18580;SDS011;9420;50.876;7.012;2023-04-12T13:51:56;4.53;;;1.47;;
18580;SDS011;9420;50.876;7.012;2023-04-12T13:54:23;5.40;;;1.37;;
18580;SDS011;9420;50.876;7.012;2023-04-12T13:56:50;6.43;;;1.60;;
18580;SDS011;9420;50.876;7.012;2023-04-12T13:59:18;4.00;;;1.57;;
18580;SDS011;9420;50.876;7.012;2023-04-12T14:01:45;7.13;;;1.80;;
18580;SDS011;9420;50.876;7.012;2023-04-12T14:04:12;4.60;;;1.47;;
18580;SDS011;9420;50.876;7.012;2023-04-12T14:06:39;6.20;;;1.40;;
18580;SDS011;9420;50.876;7.012;2023-04-12T14:09:06;6.17;;;1.53;;
18580;SDS011;9420;50.876;7.012;2023-04-12T14:11:43;4.43;;;1.90;;
18580;SDS011;9420;50.876;7.012;2023-04-12T14:14:12;3.67;;;1.37;;
18580;SDS011;9420;50.876;7.012;2023-04-12T14:16:40;5.17;;;1.30;;
18580;SDS011;9420;50.876;7.012;2023-04-12T14:19:08;3.67;;;1.30;;
18580;SDS011;9420;50.876;7.012;2023-04-12T14:21:35;5.37;;;1.30;;
18580;SDS011;9420;50.876;7.012;2023-04-12T14:24:02;4.47;;;1.10;;
18580;SDS011;9420;50.876;7.012;2023-04-12T14:26:30;5.57;;;1.77;;
18580;SDS011;9420;50.876;7.012;2023-04-12T14:28:57;6.53;;;1.80;;
18580;SDS011;9420;50.876;7.012;2023-04-12T14:31:24;8.30;;;1.43;;
18580;SDS011;9420;50.876;7.012;2023-04-12T14:33:53;5.73;;;1.70;;
18580;SDS011;9420;50.876;7.012;2023-04-12T14:36:21;6.60;;;1.77;;
18580;SDS011;9420;50.876;7.012;2023-04-12T14:38:48;16.17;;;2.33;;
18580;SDS011;9420;50.876;7.012;2023-04-12T14:41:15;4.93;;;2.00;;
18580;SDS011;9420;50.876;7.012;2023-04-12T14:43:42;7.97;;;2.17;;
18580;SDS011;9420;50.876;7.012;2023-04-12T14:46:10;8.83;;;2.03;;
18580;SDS011;9420;50.876;7.012;2023-04-12T14:48:37;8.50;;;2.43;;
18580;SDS011;9420;50.876;7.012;2023-04-12T14:51:06;9.90;;;2.93;;
18580;SDS011;9420;50.876;7.012;2023-04-12T14:53:33;7.70;;;2.30;;
18580;SDS011;9420;50.876;7.012;2023-04-12T14:56:00;5.87;;;2.03;;
18580;SDS011;9420;50.876;7.012;2023-04-12T14:58:27;8.90;;;2.40;;
18580;SDS011;9420;50.876;7.012;2023-04-12T15:00:55;5.37;;;1.87;;
18580;SDS011;9420;50.876;7.012;2023-04-12T15:03:24;7.77;;;2.13;;
18580;SDS011;9420;50.876;7.012;2023-04-12T15:05:53;6.37;;;1.87;;
18580;SDS011;9420;50.876;7.012;2023-04-12T15:08:23;7.73;;;2.20;;
18580;SDS011;9420;50.876;7.012;2023-04-12T15:10:50;5.33;;;1.83;;
18580;SDS011;9420;50.876;7.012;2023-04-12T15:13:17;7.70;;;2.37;;
18580;SDS011;9420;50.876;7.012;2023-04-12T15:15:45;3.53;;;1.43;;
18580;SDS011;9420;50.876;7.012;2023-04-12T15:18:12;9.93;;;2.10;;
18580;SDS011;9420;50.876;7.012;2023-04-12T15:20:40;7.30;;;2.20;;
18580;SDS011;9420;50.876;7.012;2023-04-12T15:23:07;6.27;;;1.77;;